Monterey Peninsula Airport Monterey US
ICAO: KMRY
IATA: MRY
Category: Medium
Scheduled Services: Yes

Elevation: 257 ft
TransAlt. 18000 ft.

Airport Communications:
NORCAL APP/DEP:127.15
ATIS:119.25
CLNC DEL:135.45
CTAF:118.4
GND:121.9
TWR:118.4
UNICOM:122.95

KMRY Zoom In..

If you have problems with the map follow the link
https://www.worldairports.se/pages/airport.php?
ICAO=KMRY

Runways:

(A) RW 10L length 3513 ft width 60 ft
LOC 110.70 / hdg 98

(B) RW 10R length 7616 ft width 150 ft
ILS 110.70 / hdg 98

(C) RW 28L length 7616 ft width 150 ft
LOC 110.70 / hdg 278

(D) RW 28R length 3513 ft width 60 ft
LOC 110.70 / hdg 278

Location; KMRY
Day. 23 / Time. 07.03 Zulu
* Altimeter: 29.98
* Temperature: 13° c. 55.4°f.
* Wind from: 180° Speed 04 kn.
Dewpoint: 10° c.
Visibility: 10 Statute Miles.
Clouds: Broken 900 ft.

KMRY 230703Z AUTO 18004KT 10SM BKN009 13/10 A2998 RMK AO2 CIG 008V013 T01330100


Wind From 180°
Speed 04 kn.

 
 
jpsmedia.com for Web Design worldairports.se 2018   terms of use